Roans Prairie, Texas
Current Conditions -  °F | °C
As of 2:53 AM on Thursday 27 Nov 2014 (Local Time) from KUTS Reporting Station
Clear Clear  
Wind Chill: 45°   Ceiling: Unl
Heat Index: 45°   Visibility: 10mi
Dew Point: 36°   Wind: 3mph
Humidity: 71%   Direction: NA
Pressure: 30.38"   Gusts: NA
Location:  30.58°N, 95.94°W
Report Text: KUTS 270853Z AUTO VRB03KT 10SM CLR 07/02 A3038 RMK AO2 SLP285 T00720022 51012
Loading
Personal Weather Stations






























Interactive Weather Map New forecast layout! Learn more

10-Day Weather Forecast

Advertisements
Track Severe Weather on mobile